Eagle Varna — 9V6189 — position and weather

sailwx.info

Track history (hours):
 
Tides and Currents Weather Stations Pressure Air Temp Water Temp Dewpoint Dewpoint Depression Visibility Wind Speed Wind Dir Waves Ship Positions

Eagle Varna

Last reported at 2017-Dec-10 16:46 UTC. Time now 2017-Dec-12 16:06 UTC.
Position N 32°28' W 117°47'.

Length 333 m; draft 11 m.

Type: Tanker. MMSI: 566848000.

Date/timePositionNaut miles runAvg speedWind from/ knotsBaromVisibWave heightAir tempDewpointWater temp
2017-Dec-10 16:46N 32°28' W 117°47'310.0
2017-Dec-10 16:27N 32°31' W 117°48'4 9.9
2017-Dec-10 16:00N 32°35' W 117°49'5 9.9
2017-Dec-10 15:30N 32°40' W 117°51'510.0
2017-Dec-10 15:00N 32°45' W 117°53'510.1
2017-Dec-10 14:30N 32°49' W 117°54'510.1
2017-Dec-10 14:00N 32°54' W 117°56'510.1
2017-Dec-10 13:30N 32°59' W 117°58'510.4
2017-Dec-10 13:00N 33°04' W 118°00'510.6
2017-Dec-10 12:30N 33°09' W 118°02'510.6
2017-Dec-10 12:01N 33°14' W 118°04'510.3
2017-Dec-10 11:30N 33°19' W 118°06'510.2
2017-Dec-10 11:00N 33°24' W 118°08'510.3
2017-Dec-10 10:30N 33°28' W 118°10'510.2
2017-Dec-10 09:58N 33°34' W 118°13'5 9.6
2017-Dec-10 09:30N 33°38' W 118°13'6 0.7
2017-Dec-10 01:25N 33°44' W 118°13'0 0.1
2017-Dec-10 00:31N 33°44' W 118°13'0 0.1
2017-Dec-09 23:13N 33°44' W 118°13'0 0.1
2017-Dec-09 19:13N 33°44' W 118°13'0 0.0
2017-Dec-09 18:55N 33°44' W 118°13'0 0.1
2017-Dec-09 17:49N 33°44' W 118°13'0 0.0
2017-Dec-09 17:19N 33°44' W 118°13'0 0.1
2017-Dec-09 16:31N 33°44' W 118°13'0 0.1
2017-Dec-09 16:25N 33°44' W 118°13'0 0.1
2017-Dec-09 15:43N 33°44' W 118°13'0 0.0
2017-Dec-09 15:25N 33°44' W 118°13'0 0.0
2017-Dec-09 14:49N 33°44' W 118°13'0 0.0
2017-Dec-09 14:25N 33°44' W 118°13'0 0.0
2017-Dec-09 13:55N 33°44' W 118°13'0 0.0
2017-Dec-09 13:25N 33°44' W 118°13'0 0.2
2017-Dec-09 12:55N 33°44' W 118°13'0 0.4
2017-Dec-09 12:25N 33°44' W 118°13'0 0.5
2017-Dec-09 12:00N 33°44' W 118°13'1 2.6
2017-Dec-09 11:30N 33°45' W 118°13'0 0.0
2017-Dec-09 11:00N 33°45' W 118°13'0 0.0
2017-Dec-09 10:30N 33°45' W 118°13'0 0.0
2017-Dec-09 09:57N 33°45' W 118°13'0 0.0
2017-Dec-09 09:27N 33°45' W 118°13'0 0.0
2017-Dec-09 08:57N 33°45' W 118°13'0 0.0
2017-Dec-09 08:27N 33°45' W 118°13'  
2017-Dec-04 10:28N 31°56' W 118°55'613.3
2017-Dec-04 10:00N 31°51' W 118°60'713.4
2017-Dec-04 09:27N 31°46' W 119°06'613.0
2017-Dec-04 09:00N 31°41' W 119°10'4 8.9
2017-Dec-04 08:30N 31°38' W 119°13'2 3.0
2017-Dec-04 08:00N 31°39' W 119°15'2 2.8
2017-Dec-04 07:16N 31°40' W 119°17'17 2.7
2017-Dec-04 00:56N 31°53' W 119°30'4 2.0
2017-Dec-03 23:07N 31°55' W 119°33'26 2.9
2017-Dec-03 14:08N 32°15' W 119°52'0 2.9
2017-Dec-03 13:58N 32°16' W 119°52'1 0.9
2017-Dec-03 13:09N 32°16' W 119°52'0 1.3
2017-Dec-03 13:00N 32°17' W 119°52'1 2.1
2017-Dec-03 12:26N 32°18' W 119°52'1 1.9
2017-Dec-03 12:00N 32°19' W 119°52'1 1.2
2017-Dec-03 11:26N 32°19' W 119°51'1 1.3
2017-Dec-03 11:00N 32°19' W 119°52'0 0.6
2017-Dec-03 10:30N 32°19' W 119°53'1 0.7
2017-Dec-03 09:48N 32°19' W 119°53'0 0.7
2017-Dec-03 09:30N 32°19' W 119°53'0 0.9
2017-Dec-03 09:00N 32°19' W 119°54'0 0.9
2017-Dec-03 08:30N 32°19' W 119°54'1 1.4
2017-Dec-03 08:00N 32°19' W 119°55'1 2.9
2017-Dec-03 07:30N 32°17' W 119°54'4 4.8
2017-Dec-03 06:36N 32°14' W 119°50'0 4.7
2017-Dec-03 06:30N 32°14' W 119°50'4 4.6
2017-Dec-03 05:39N 32°12' W 119°46'1 4.7
2017-Dec-03 05:30N 32°12' W 119°45'2 4.6
2017-Dec-03 05:00N 32°10' W 119°43'2 4.7
2017-Dec-03 04:30N 32°09' W 119°40'2 4.9
2017-Dec-03 04:00N 32°08' W 119°38'3 5.1
2017-Dec-03 03:22N 32°07' W 119°34'2 4.7
2017-Dec-03 02:55N 32°06' W 119°32'2 4.9
2017-Dec-03 02:30N 32°05' W 119°30'2 4.7
2017-Dec-03 02:00N 32°03' W 119°28'3 4.5
2017-Dec-03 01:25N 32°02' W 119°25'2 4.8
2017-Dec-03 01:00N 32°01' W 119°23'2 4.9
2017-Dec-03 00:30N 31°60' W 119°21'3 5.1
2017-Dec-03 00:00N 31°58' W 119°18'3 4.7
2017-Dec-02 23:25N 31°57' W 119°15'3 5.0
2017-Dec-02 22:49N 31°55' W 119°12'1 4.7
2017-Dec-02 22:30N 31°54' W 119°11'3 4.9
2017-Dec-02 21:59N 31°53' W 119°09'2 4.3
2017-Dec-02 21:30N 31°51' W 119°07'2 4.4
2017-Dec-02 21:00N 31°50' W 119°05'2 3.7
2017-Dec-02 20:30N 31°49' W 119°03'1 1.2
2017-Dec-02 20:00N 31°49' W 119°03'2 3.1
2017-Dec-02 19:30N 31°51' W 119°04'1 1.5
2017-Dec-02 19:00N 31°50' W 119°04'1 1.1
2017-Dec-02 18:29N 31°50' W 119°05'1 1.3
2017-Dec-02 17:59N 31°51' W 119°06'1 1.4
2017-Dec-02 17:30N 31°51' W 119°06'1 1.1
2017-Dec-02 17:00N 31°51' W 119°07'1 1.2
2017-Dec-02 16:19N 31°52' W 119°08'1 1.2
2017-Dec-02 15:46N 31°52' W 119°08'1 1.2
2017-Dec-02 15:10N 31°53' W 119°09'1 1.5
2017-Dec-02 14:23N 31°54' W 119°10'1 1.2
2017-Dec-02 13:48N 31°54' W 119°10'0 1.3
2017-Dec-02 13:28N 31°54' W 119°11'1 1.3
2017-Dec-02 12:59N 31°55' W 119°12'1 1.4
2017-Dec-02 12:30N 31°55' W 119°12'1 1.4
2017-Dec-02 12:00N 31°55' W 119°13'1 1.4
2017-Dec-02 11:30N 31°56' W 119°14'1 1.3
2017-Dec-02 10:33N 31°56' W 119°15'0 1.0
2017-Dec-02 10:29N 31°56' W 119°15'2 1.3
2017-Dec-02 09:14N 31°57' W 119°17'0 1.1
2017-Dec-02 08:56N 31°57' W 119°17'1 1.1
2017-Dec-02 08:05N 31°58' W 119°18'0 0.8
2017-Dec-02 07:56N 31°58' W 119°18'0 1.0
2017-Dec-02 07:30N 31°58' W 119°19'0 0.9
2017-Dec-02 07:00N 31°58' W 119°19'0 0.9
2017-Dec-02 06:30N 31°58' W 119°19'0 1.0
2017-Dec-02 06:00N 31°59' W 119°20'0 0.9
2017-Dec-02 05:30N 31°59' W 119°20'1 1.0
2017-Dec-02 05:00N 31°59' W 119°21'0 0.9
2017-Dec-02 04:30N 31°59' W 119°21'0 0.9
2017-Dec-02 04:00N 31°59' W 119°22'1 0.9
2017-Dec-02 03:23N 31°60' W 119°22'0 0.9
2017-Dec-02 03:00N 31°60' W 119°23'1 1.1
2017-Dec-02 02:29N 32°00' W 119°23'1 1.1
2017-Dec-02 01:55N 32°00' W 119°24'0 1.0
2017-Dec-02 01:30N 32°00' W 119°24'0 0.9
2017-Dec-02 00:59N 32°01' W 119°25'1 0.8
2017-Dec-02 00:02N 32°01' W 119°26'0 1.1
2017-Dec-01 23:59N 32°01' W 119°26'3 1.1
2017-Dec-01 20:58N 32°03' W 119°29'1 1.3
2017-Dec-01 20:28N 32°03' W 119°30'1 1.2
2017-Dec-01 19:55N 32°04' W 119°30'0 1.1
2017-Dec-01 19:30N 32°04' W 119°31'20 2.2
2017-Dec-01 10:29N 32°12' W 119°53'1 1.8
2017-Dec-01 09:54N 32°12' W 119°54'0 0.9
2017-Dec-01 09:29N 32°13' W 119°54'0 0.9
2017-Dec-01 09:00N 32°13' W 119°54'0 0.9
2017-Dec-01 08:30N 32°14' W 119°54'  
Track history (hours):
 
Tides and Currents Weather Stations Pressure Air Temp Water Temp Dewpoint Dewpoint Depression Visibility Wind Speed Wind Dir Waves Ship Positions

Eagle Varna

Last reported at 2017-Dec-10 16:46 UTC. Time now 2017-Dec-12 16:06 UTC.
Position N 32°28' W 117°47'.

Length 333 m; draft 11 m.

Type: Tanker. MMSI: 566848000.

Date/timePositionNaut miles runAvg speedWind from/ knotsBaromVisibWave heightAir tempDewpointWater temp
2017-Dec-10 16:46N 32°28' W 117°47'310.0
2017-Dec-10 16:27N 32°31' W 117°48'4 9.9
2017-Dec-10 16:00N 32°35' W 117°49'5 9.9
2017-Dec-10 15:30N 32°40' W 117°51'510.0
2017-Dec-10 15:00N 32°45' W 117°53'510.1
2017-Dec-10 14:30N 32°49' W 117°54'510.1
2017-Dec-10 14:00N 32°54' W 117°56'510.1
2017-Dec-10 13:30N 32°59' W 117°58'510.4
2017-Dec-10 13:00N 33°04' W 118°00'510.6
2017-Dec-10 12:30N 33°09' W 118°02'510.6
2017-Dec-10 12:01N 33°14' W 118°04'510.3
2017-Dec-10 11:30N 33°19' W 118°06'510.2
2017-Dec-10 11:00N 33°24' W 118°08'510.3
2017-Dec-10 10:30N 33°28' W 118°10'510.2
2017-Dec-10 09:58N 33°34' W 118°13'5 9.6
2017-Dec-10 09:30N 33°38' W 118°13'6 0.7
2017-Dec-10 01:25N 33°44' W 118°13'0 0.1
2017-Dec-10 00:31N 33°44' W 118°13'0 0.1
2017-Dec-09 23:13N 33°44' W 118°13'0 0.1
2017-Dec-09 19:13N 33°44' W 118°13'0 0.0
2017-Dec-09 18:55N 33°44' W 118°13'0 0.1
2017-Dec-09 17:49N 33°44' W 118°13'0 0.0
2017-Dec-09 17:19N 33°44' W 118°13'0 0.1
2017-Dec-09 16:31N 33°44' W 118°13'0 0.1
2017-Dec-09 16:25N 33°44' W 118°13'0 0.1
2017-Dec-09 15:43N 33°44' W 118°13'0 0.0
2017-Dec-09 15:25N 33°44' W 118°13'0 0.0
2017-Dec-09 14:49N 33°44' W 118°13'0 0.0
2017-Dec-09 14:25N 33°44' W 118°13'0 0.0
2017-Dec-09 13:55N 33°44' W 118°13'0 0.0
2017-Dec-09 13:25N 33°44' W 118°13'0 0.2
2017-Dec-09 12:55N 33°44' W 118°13'0 0.4
2017-Dec-09 12:25N 33°44' W 118°13'0 0.5
2017-Dec-09 12:00N 33°44' W 118°13'1 2.6
2017-Dec-09 11:30N 33°45' W 118°13'0 0.0
2017-Dec-09 11:00N 33°45' W 118°13'0 0.0
2017-Dec-09 10:30N 33°45' W 118°13'0 0.0
2017-Dec-09 09:57N 33°45' W 118°13'0 0.0
2017-Dec-09 09:27N 33°45' W 118°13'0 0.0
2017-Dec-09 08:57N 33°45' W 118°13'0 0.0
2017-Dec-09 08:27N 33°45' W 118°13'  
2017-Dec-04 10:28N 31°56' W 118°55'613.3
2017-Dec-04 10:00N 31°51' W 118°60'713.4
2017-Dec-04 09:27N 31°46' W 119°06'613.0
2017-Dec-04 09:00N 31°41' W 119°10'4 8.9
2017-Dec-04 08:30N 31°38' W 119°13'2 3.0
2017-Dec-04 08:00N 31°39' W 119°15'2 2.8
2017-Dec-04 07:16N 31°40' W 119°17'17 2.7
2017-Dec-04 00:56N 31°53' W 119°30'4 2.0
2017-Dec-03 23:07N 31°55' W 119°33'26 2.9
2017-Dec-03 14:08N 32°15' W 119°52'0 2.9
2017-Dec-03 13:58N 32°16' W 119°52'1 0.9
2017-Dec-03 13:09N 32°16' W 119°52'0 1.3
2017-Dec-03 13:00N 32°17' W 119°52'1 2.1
2017-Dec-03 12:26N 32°18' W 119°52'1 1.9
2017-Dec-03 12:00N 32°19' W 119°52'1 1.2
2017-Dec-03 11:26N 32°19' W 119°51'1 1.3
2017-Dec-03 11:00N 32°19' W 119°52'0 0.6
2017-Dec-03 10:30N 32°19' W 119°53'1 0.7
2017-Dec-03 09:48N 32°19' W 119°53'0 0.7
2017-Dec-03 09:30N 32°19' W 119°53'0 0.9
2017-Dec-03 09:00N 32°19' W 119°54'0 0.9
2017-Dec-03 08:30N 32°19' W 119°54'1 1.4
2017-Dec-03 08:00N 32°19' W 119°55'1 2.9
2017-Dec-03 07:30N 32°17' W 119°54'4 4.8
2017-Dec-03 06:36N 32°14' W 119°50'0 4.7
2017-Dec-03 06:30N 32°14' W 119°50'4 4.6
2017-Dec-03 05:39N 32°12' W 119°46'1 4.7
2017-Dec-03 05:30N 32°12' W 119°45'2 4.6
2017-Dec-03 05:00N 32°10' W 119°43'2 4.7
2017-Dec-03 04:30N 32°09' W 119°40'2 4.9
2017-Dec-03 04:00N 32°08' W 119°38'3 5.1
2017-Dec-03 03:22N 32°07' W 119°34'2 4.7
2017-Dec-03 02:55N 32°06' W 119°32'2 4.9
2017-Dec-03 02:30N 32°05' W 119°30'2 4.7
2017-Dec-03 02:00N 32°03' W 119°28'3 4.5
2017-Dec-03 01:25N 32°02' W 119°25'2 4.8
2017-Dec-03 01:00N 32°01' W 119°23'2 4.9
2017-Dec-03 00:30N 31°60' W 119°21'3 5.1
2017-Dec-03 00:00N 31°58' W 119°18'3 4.7
2017-Dec-02 23:25N 31°57' W 119°15'3 5.0
2017-Dec-02 22:49N 31°55' W 119°12'1 4.7
2017-Dec-02 22:30N 31°54' W 119°11'3 4.9
2017-Dec-02 21:59N 31°53' W 119°09'2 4.3
2017-Dec-02 21:30N 31°51' W 119°07'2 4.4
2017-Dec-02 21:00N 31°50' W 119°05'2 3.7
2017-Dec-02 20:30N 31°49' W 119°03'1 1.2
2017-Dec-02 20:00N 31°49' W 119°03'2 3.1
2017-Dec-02 19:30N 31°51' W 119°04'1 1.5
2017-Dec-02 19:00N 31°50' W 119°04'1 1.1
2017-Dec-02 18:29N 31°50' W 119°05'1 1.3
2017-Dec-02 17:59N 31°51' W 119°06'1 1.4
2017-Dec-02 17:30N 31°51' W 119°06'1 1.1
2017-Dec-02 17:00N 31°51' W 119°07'1 1.2
2017-Dec-02 16:19N 31°52' W 119°08'1 1.2
2017-Dec-02 15:46N 31°52' W 119°08'1 1.2
2017-Dec-02 15:10N 31°53' W 119°09'1 1.5
2017-Dec-02 14:23N 31°54' W 119°10'1 1.2
2017-Dec-02 13:48N 31°54' W 119°10'0 1.3
2017-Dec-02 13:28N 31°54' W 119°11'1 1.3
2017-Dec-02 12:59N 31°55' W 119°12'1 1.4
2017-Dec-02 12:30N 31°55' W 119°12'1 1.4
2017-Dec-02 12:00N 31°55' W 119°13'1 1.4
2017-Dec-02 11:30N 31°56' W 119°14'1 1.3
2017-Dec-02 10:33N 31°56' W 119°15'0 1.0
2017-Dec-02 10:29N 31°56' W 119°15'2 1.3
2017-Dec-02 09:14N 31°57' W 119°17'0 1.1
2017-Dec-02 08:56N 31°57' W 119°17'1 1.1
2017-Dec-02 08:05N 31°58' W 119°18'0 0.8
2017-Dec-02 07:56N 31°58' W 119°18'0 1.0
2017-Dec-02 07:30N 31°58' W 119°19'0 0.9
2017-Dec-02 07:00N 31°58' W 119°19'0 0.9
2017-Dec-02 06:30N 31°58' W 119°19'0 1.0
2017-Dec-02 06:00N 31°59' W 119°20'0 0.9
2017-Dec-02 05:30N 31°59' W 119°20'1 1.0
2017-Dec-02 05:00N 31°59' W 119°21'0 0.9
2017-Dec-02 04:30N 31°59' W 119°21'0 0.9
2017-Dec-02 04:00N 31°59' W 119°22'1 0.9
2017-Dec-02 03:23N 31°60' W 119°22'0 0.9
2017-Dec-02 03:00N 31°60' W 119°23'1 1.1
2017-Dec-02 02:29N 32°00' W 119°23'1 1.1
2017-Dec-02 01:55N 32°00' W 119°24'0 1.0
2017-Dec-02 01:30N 32°00' W 119°24'0 0.9
2017-Dec-02 00:59N 32°01' W 119°25'1 0.8
2017-Dec-02 00:02N 32°01' W 119°26'0 1.1
2017-Dec-01 23:59N 32°01' W 119°26'3 1.1
2017-Dec-01 20:58N 32°03' W 119°29'1 1.3
2017-Dec-01 20:28N 32°03' W 119°30'1 1.2
2017-Dec-01 19:55N 32°04' W 119°30'0 1.1
2017-Dec-01 19:30N 32°04' W 119°31'20 2.2
2017-Dec-01 10:29N 32°12' W 119°53'1 1.8
2017-Dec-01 09:54N 32°12' W 119°54'0 0.9
2017-Dec-01 09:29N 32°13' W 119°54'0 0.9
2017-Dec-01 09:00N 32°13' W 119°54'0 0.9
2017-Dec-01 08:30N 32°14' W 119°54'  

Dump ship's entire track history